Data for 01/30/2007

Time Sea-Level Adjusted Pressure Absolute Pressure Temperature Relative Humidity Dew Point   
(mb) (inHg) (mb) (inHg) (C) (F) (%) (C) (F)
00:05 1022 30.18 851 25.13 -7.4 18.8 57 -14.5 6
00:10 1022 30.18 851 25.13 -7.4 18.6 58 -14.4 6
00:15 1022 30.18 851 25.13 -7.6 18.4 58 -14.4 6
00:20 1022 30.18 851 25.13 -7.7 18.1 59 -14.5 6
00:25 1022 30.18 851 25.13 -7.9 17.9 58 -14.7 5.6
00:30 1022 30.18 851 25.13 -7.9 17.8 58 -14.8 5.4
00:35 1022 30.18 851 25.13 -8 17.6 58 -14.8 5.4
00:40 1022 30.18 851 25.13 -8.1 17.5 58 -14.9 5.2
00:45 1022 30.18 851 25.13 -8.1 17.4 59 -14.9 5.3
00:50 1022 30.18 851 25.13 -8.3 17.2 59 -14.9 5.1
00:55 1022 30.18 851 25.13 -8.3 17.1 59 -15 4.9
01:00 1022 30.18 851 25.13 -8.3 17.1 58 -15.1 4.9
01:05 1022 30.18 851 25.13 -8.3 17 58 -15.1 4.8
01:10 1022 30.18 851 25.13 -8.6 16.6 59 -15.1 4.8
01:15 1022 30.18 851 25.13 -8.8 16.2 61 -15.1 4.9
01:20 1022 30.18 851 25.13 -8.9 15.9 61 -15.1 4.8
01:25 1022 30.18 851 25.13 -8.9 16 62 -15 5.1
01:30 1022 30.18 851 25.13 -8.9 16.1 61 -15 5
01:35 1022 30.18 851 25.13 -8.8 16.1 62 -14.9 5.2
01:40 1022 30.18 851 25.13 -8.9 16 63 -14.8 5.4
01:45 1022 30.18 851 25.13 -9 15.8 63 -14.8 5.4
01:50 1021 30.15 851 25.13 -9.1 15.6 64 -14.8 5.4
01:55 1021 30.15 851 25.13 -9.1 15.6 64 -14.8 5.4
02:00 1021 30.15 851 25.13 -9.5 14.9 64 -15.1 4.9
02:05 1021 30.15 851 25.13 -10.4 13.2 67 -15.4 4.2
02:10 1021 30.15 851 25.13 -10.5 13.1 67 -15.5 4.1
02:15 1021 30.15 850 25.1 -10.6 13 68 -15.4 4.2
02:20 1021 30.15 850 25.1 -10.5 13.2 67 -15.4 4.3
02:25 1021 30.15 850 25.1 -10.3 13.5 67 -15.4 4.3
02:30 1021 30.15 850 25.1 -10.4 13.2 67 -15.4 4.3
02:35 1021 30.15 850 25.1 -10.5 13.1 67 -15.5 4.1
02:40 1021 30.15 850 25.1 -10.3 13.4 67 -15.4 4.3
02:45 1021 30.15 850 25.1 -10.2 13.6 67 -15.3 4.4
02:50 1021 30.15 850 25.1 -10.1 13.8 66 -15.3 4.5
02:55 1021 30.15 850 25.1 -10.2 13.6 67 -15.3 4.4
03:00 1021 30.15 850 25.1 -10.2 13.7 66 -15.3 4.4
03:05 1021 30.15 850 25.1 -10.1 13.8 66 -15.3 4.4
03:10 1021 30.15 850 25.1 -10.2 13.6 67 -15.3 4.5
03:15 1021 30.15 850 25.1 -10.5 13.1 68 -15.3 4.5
03:20 1021 30.15 850 25.1 -10.7 12.7 69 -15.4 4.2
03:25 1021 30.15 850 25.1 -10.6 13 68 -15.3 4.4
03:30 1021 30.15 850 25.1 -10.6 12.8 68 -15.4 4.3
03:35 1021 30.15 850 25.1 -10.6 13 69 -15.2 4.7
03:40 1021 30.15 850 25.1 -10.4 13.4 68 -15.1 4.8
03:45 1021 30.15 850 25.1 -10.3 13.4 68 -15.1 4.8
03:50 1021 30.15 850 25.1 -10.2 13.6 68 -15.1 4.9
03:55 1021 30.15 850 25.1 -10.4 13.4 68 -15.1 4.8
04:00 1021 30.15 850 25.1 -10.5 13.1 69 -15.1 4.7
04:05 1021 30.15 850 25.1 -10.6 12.9 69 -15.2 4.6
04:10 1021 30.15 850 25.1 -10.8 12.6 69 -15.3 4.4
04:15 1021 30.15 850 25.1 -11.1 12 70 -15.5 4.1
04:20 1021 30.15 850 25.1 -11.4 11.5 71 -15.7 3.7
04:25 1020 30.12 850 25.1 -11.5 11.3 71 -15.8 3.6
04:30 1020 30.12 850 25.1 -11.3 11.7 71 -15.6 3.9
04:35 1020 30.12 849 25.07 -11.4 11.5 71 -15.6 3.9
04:40 1020 30.12 849 25.07 -11.4 11.5 70 -15.8 3.6
04:45 1020 30.12 849 25.07 -11.6 11.1 71 -15.8 3.6
04:50 1020 30.12 849 25.07 -11.4 11.5 71 -15.7 3.8
04:55 1020 30.12 849 25.07 -11 12.1 70 -15.4 4.3
05:00 1020 30.12 849 25.07 -11.2 11.9 71 -15.5 4.1
05:05 1020 30.12 849 25.07 -11.4 11.4 72 -15.6 3.9
05:10 1020 30.12 849 25.07 -11.6 11.2 72 -15.7 3.8
05:15 1020 30.12 849 25.07 -11.8 10.8 72 -15.8 3.6
05:20 1020 30.12 849 25.07 -11.7 10.9 73 -15.7 3.7
05:25 1020 30.12 849 25.07 -11.7 10.9 72 -15.8 3.6
05:30 1020 30.12 849 25.07 -12 10.5 73 -15.9 3.3
05:35 1020 30.12 849 25.07 -12.4 9.8 74 -16.2 2.9
05:40 1020 30.12 849 25.07 -12.6 9.4 74 -16.3 2.6
05:45 1020 30.12 849 25.07 -12.5 9.5 74 -16.2 2.8
05:50 1020 30.12 849 25.07 -12.4 9.6 75 -16 3.2
05:55 1020 30.12 849 25.07 -12.3 9.8 73 -16.1 3
06:00 1020 30.12 849 25.07 -12.5 9.5 74 -16.2 2.8
06:05 1020 30.12 849 25.07 -12.4 9.7 73 -16.3 2.6
06:10 1020 30.12 849 25.07 -12.3 9.9 73 -16.2 2.8
06:15 1020 30.12 849 25.07 -12 10.3 73 -16 3.2
06:20 1020 30.12 849 25.07 -12.1 10.2 73 -16.1 3
06:25 1020 30.12 849 25.07 -12.1 10.3 72 -16.1 3
06:30 1020 30.12 849 25.07 -11.8 10.8 71 -16.1 3.1
06:35 1020 30.12 849 25.07 -11.5 11.4 69 -16 3.2
06:40 1020 30.12 849 25.07 -11.3 11.6 69 -15.9 3.4
06:45 1020 30.12 849 25.07 -11.3 11.7 70 -15.7 3.7
06:50 1020 30.12 849 25.07 -11.3 11.6 70 -15.8 3.6
06:55 1020 30.12 849 25.07 -11.4 11.5 70 -15.8 3.5
07:00 1020 30.12 849 25.07 -11.5 11.4 70 -16 3.3
07:05 1020 30.12 849 25.07 -11.6 11.1 70 -16.1 3.1
07:10 1020 30.12 849 25.07 -11.7 11 70 -16.1 3.1
07:15 1020 30.12 849 25.07 -11.8 10.9 72 -15.9 3.4
07:20 1020 30.12 849 25.07 -11.5 11.3 71 -15.8 3.5
07:25 1020 30.12 849 25.07 -11.3 11.7 68 -16 3.3
07:30 1020 30.12 849 25.07 -11.4 11.4 69 -16.1 3
07:35 1020 30.12 849 25.07 -11.8 10.8 69 -16.4 2.5
07:40 1020 30.12 849 25.07 -12.3 9.8 71 -16.5 2.3
07:45 1020 30.12 849 25.07 -12.9 8.8 73 -16.7 2
07:50 1020 30.12 849 25.07 -13.3 8.2 75 -16.7 1.9
07:55 1020 30.12 849 25.07 -12.9 8.8 75 -16.5 2.3
08:00 1020 30.12 849 25.07 -12.6 9.3 74 -16.4 2.5
08:05 1020 30.12 849 25.07 -12.5 9.6 72 -16.5 2.4
08:10 1020 30.12 849 25.07 -12.5 9.5 73 -16.5 2.4
08:15 1020 30.12 849 25.07 -12.6 9.4 73 -16.5 2.2
08:20 1020 30.12 849 25.07 -12.6 9.3 73 -16.4 2.4
08:25 1020 30.12 849 25.07 -12.2 10 72 -16.3 2.6
08:30 1020 30.12 849 25.07 -12 10.3 72 -16.2 2.9
08:35 1020 30.12 849 25.07 -12.2 10.1 72 -16.2 2.8
08:40 1020 30.12 849 25.07 -12.4 9.6 73 -16.4 2.5
08:45 1019 30.09 849 25.07 -12.5 9.5 73 -16.4 2.4
08:50 1020 30.12 849 25.07 -12.4 9.7 72 -16.5 2.4
08:55 1020 30.12 849 25.07 -11.9 10.6 70 -16.3 2.7
09:00 1020 30.12 849 25.07 -11.4 11.5 69 -16 3.2
09:05 1019 30.09 849 25.07 -10.8 12.5 67 -15.9 3.4
09:10 1019 30.09 849 25.07 -10.2 13.6 65 -15.5 4
09:15 1019 30.09 849 25.07 -9.1 15.5 62 -15.3 4.5
09:20 1020 30.12 849 25.07 -8.2 17.2 58 -15.2 4.7
09:25 1020 30.12 849 25.07 -8.1 17.5 57 -15.1 4.8
09:30 1019 30.09 849 25.07 -7.7 18.1 56 -15 5.1
09:35 1019 30.09 849 25.07 -7.6 18.3 55 -15.2 4.6
09:40 1019 30.09 849 25.07 -8.2 17.3 58 -15.1 4.8
09:45 1019 30.09 849 25.07 -8.1 17.4 56 -15.4 4.3
09:50 1019 30.09 849 25.07 -7.4 18.8 53 -15.3 4.4
09:55 1019 30.09 849 25.07 -7.2 19.1 54 -15.1 4.8
10:00 1019 30.09 849 25.07 -7 19.5 53 -15 5
10:05 1019 30.09 849 25.07 -6.5 20.4 52 -14.9 5.2
10:10 1019 30.09 849 25.07 -6.6 20 52 -15 5
10:15 1020 30.12 849 25.07 -6.1 21 51 -14.6 5.6
10:20 1020 30.12 849 25.07 -5.2 22.6 47 -15 5.1
10:25 1020 30.12 849 25.07 -5.2 22.7 48 -14.6 5.7
10:30 1020 30.12 849 25.07 -4.7 23.5 46 -14.7 5.5
10:35 1019 30.09 849 25.07 -4.2 24.5 45 -14.5 5.8
10:40 1019 30.09 849 25.07 -4.5 23.9 46 -14.4 6
10:45 1019 30.09 849 25.07 -4.9 23.3 47 -14.5 5.9
10:50 1020 30.12 849 25.07 -4.6 23.7 48 -14.1 6.6
10:55 1020 30.12 849 25.07 -5.5 22 50 -14.5 6
11:00 1019 30.09 849 25.07 -5.8 21.6 50 -14.5 5.9
11:05 1020 30.12 849 25.07 -5.8 21.6 51 -14.4 6.1
11:10 1020 30.12 849 25.07 -5.1 22.8 49 -14.4 6.1
11:15 1020 30.12 849 25.07 -4.9 23.2 48 -14.3 6.3
11:20 1020 30.12 849 25.07 -4.4 24.1 44 -14.9 5.2
11:25 1020 30.12 849 25.07 -4.4 24 46 -14.5 6
11:30 1020 30.12 849 25.07 -5.4 22.3 50 -14.4 6.1
11:35 1019 30.09 849 25.07 -6.2 20.9 51 -14.8 5.4
11:40 1019 30.09 849 25.07 -6.6 20.1 53 -14.6 5.7
11:45 1019 30.09 849 25.07 -6.5 20.3 53 -14.7 5.6
11:50 1019 30.09 849 25.07 -6.4 20.4 51 -14.9 5.2
11:55 1019 30.09 849 25.07 -6.1 21 52 -14.4 6
12:00 1019 30.09 848 25.04 -5.6 22 50 -14.4 6
12:05 1019 30.09 848 25.04 -5.7 21.8 52 -14.1 6.5
12:10 1019 30.09 848 25.04 -5.3 22.4 50 -14.2 6.4
12:15 1019 30.09 848 25.04 -5.7 21.7 53 -13.8 7.1
12:20 1019 30.09 848 25.04 -6.1 21.1 56 -13.5 7.7
12:25 1019 30.09 848 25.04 -5.7 21.7 54 -13.7 7.4
12:30 1019 30.09 848 25.04 -5.7 21.7 55 -13.4 7.8
12:35 1019 30.09 848 25.04 -5.7 21.8 55 -13.3 8.1
12:40 1019 30.09 848 25.04 -5.6 22 55 -13.3 8
12:45 1019 30.09 848 25.04 -5.5 22.1 56 -13 8.6
12:50 1018 30.06 848 25.04 -5.5 22.2 55 -13.1 8.3
12:55 1018 30.06 848 25.04 -5.2 22.6 53 -13.4 7.9
13:00 1018 30.06 848 25.04 -5.1 22.8 53 -13.3 8
13:05 1018 30.06 847 25.01 -5.1 22.9 55 -12.9 8.9
13:10 1018 30.06 847 25.01 -5.2 22.6 54 -13.1 8.4
13:15 1018 30.06 847 25.01 -4.7 23.5 51 -13.4 8
13:20 1018 30.06 847 25.01 -5.1 22.9 54 -13.1 8.5
13:25 1018 30.06 847 25.01 -5.2 22.7 55 -12.9 8.8
13:30 1018 30.06 847 25.01 -5.2 22.6 53 -13.3 8.1
13:35 1018 30.06 847 25.01 -5.1 22.8 54 -13.1 8.5
13:40 1018 30.06 847 25.01 -4.4 24.1 51 -13.1 8.4
13:45 1018 30.06 847 25.01 -4.7 23.5 52 -13.1 8.5
13:50 1018 30.06 847 25.01 -5 23 54 -13 8.6
13:55 1018 30.06 847 25.01 -5.1 22.8 54 -13.1 8.4
14:00 1017 30.03 847 25.01 -5 23 54 -12.9 8.7
14:05 1017 30.03 847 25.01 -4.1 24.6 50 -13.2 8.3
14:10 1017 30.03 846 24.98 -4.2 24.5 53 -12.5 9.5
14:15 1017 30.03 846 24.98 -3.6 25.6 48 -13.1 8.4
14:20 1017 30.03 846 24.98 -3.4 26 50 -12.4 9.7
14:25 1017 30.03 846 24.98 -3.2 26.2 49 -12.5 9.5
14:30 1017 30.03 846 24.98 -2.8 27 48 -12.3 9.9
14:35 1017 30.03 846 24.98 -2.5 27.6 47 -12.2 10
14:40 1017 30.03 846 24.98 -2.2 28 47 -12 10.5
14:45 1017 30.03 846 24.98 -2.1 28.1 47 -12 10.3
14:50 1017 30.03 846 24.98 -2.2 28.1 47 -11.9 10.6
14:55 1017 30.03 846 24.98 -2.2 28.1 47 -12.1 10.2
15:00 1017 30.03 846 24.98 -2.2 28 47 -12.1 10.3
15:05 1017 30.03 846 24.98 -2.1 28.2 47 -12 10.4
15:10 1017 30.03 846 24.98 -2.2 28.1 48 -11.8 10.7
15:15 1017 30.03 846 24.98 -2.2 28.1 48 -11.7 10.9
15:20 1017 30.03 846 24.98 -2 28.4 48 -11.7 10.9
15:25 1017 30.03 846 24.98 -2.6 27.4 49 -11.8 10.8
15:30 1017 30.03 846 24.98 -2.9 26.7 50 -11.9 10.5
15:35 1017 30.03 846 24.98 -3.2 26.2 52 -11.8 10.8
15:40 1017 30.03 846 24.98 -3.2 26.2 53 -11.5 11.4
15:45 1017 30.03 846 24.98 -3.9 25.1 55 -11.7 11
15:50 1017 30.03 846 24.98 -3.8 25.2 54 -11.7 10.9
15:55 1017 30.03 846 24.98 -3.5 25.7 54 -11.5 11.3
16:00 1017 30.03 846 24.98 -3.5 25.7 53 -11.7 10.9
16:05 1017 30.03 846 24.98 -3.4 26 54 -11.4 11.4
16:10 1017 30.03 846 24.98 -3.1 26.4 53 -11.5 11.3
16:15 1017 30.03 846 24.98 -3.2 26.2 54 -11.3 11.6
16:20 1017 30.03 846 24.98 -3.2 26.2 53 -11.4 11.5
16:25 1017 30.03 846 24.98 -3.6 25.5 55 -11.4 11.5
16:30 1017 30.03 846 24.98 -3.9 24.9 56 -11.4 11.4
16:35 1017 30.03 846 24.98 -4 24.7 57 -11.3 11.6
16:40 1017 30.03 846 24.98 -4 24.8 57 -11.4 11.5
16:45 1017 30.03 846 24.98 -4 24.8 56 -11.5 11.3
16:50 1017 30.03 846 24.98 -3.9 25 57 -11.1 11.9
16:55 1017 30.03 846 24.98 -3.9 25 58 -11 12.2
17:00 1017 30.03 846 24.98 -3.8 25.1 58 -11 12.2
17:05 1017 30.03 846 24.98 -3.9 24.9 57 -11.2 11.9
17:10 1017 30.03 846 24.98 -4.2 24.4 57 -11.5 11.3
17:15 1017 30.03 846 24.98 -4.1 24.5 59 -11 12.1
17:20 1017 30.03 846 24.98 -4.1 24.7 60 -10.6 12.8
17:25 1017 30.03 846 24.98 -3.8 25.1 63 -9.8 14.3
17:30 1017 30.03 846 24.98 -4.1 24.6 68 -9.2 15.4
17:35 1017 30.03 846 24.98 -4.5 23.9 73 -8.6 16.5
17:40 1017 30.03 846 24.98 -4.4 24 76 -8.1 17.4
17:45 1017 30.03 846 24.98 -4.6 23.7 78 -7.9 17.7
17:50 1017 30.03 846 24.98 -4.7 23.5 80 -7.6 18.2
17:55 1017 30.03 846 24.98 -4.8 23.3 81 -7.6 18.3
18:00 1017 30.03 846 24.98 -4.9 23.2 82 -7.5 18.5
18:05 1017 30.03 846 24.98 -5 23 82 -7.6 18.3
18:10 1017 30.03 846 24.98 -5.2 22.6 84 -7.6 18.3
18:15 1017 30.03 846 24.98 -5.2 22.7 84 -7.5 18.4
18:20 1017 30.03 846 24.98 -5.2 22.6 85 -7.4 18.6
18:25 1017 30.03 846 24.98 -5.2 22.7 85 -7.4 18.7
18:30 1017 30.03 846 24.98 -5.4 22.4 85 -7.5 18.4
18:35 1017 30.03 846 24.98 -5.3 22.4 84 -7.7 18.2
18:40 1017 30.03 846 24.98 -5.7 21.7 85 -7.9 17.8
18:45 1017 30.03 846 24.98 -6.1 21.1 86 -8.1 17.5
18:50 1017 30.03 846 24.98 -6 21.1 86 -8.1 17.5
18:55 1017 30.03 846 24.98 -6.2 20.9 86 -8.1 17.4
19:00 1017 30.03 846 24.98 -6.2 20.8 86 -8.2 17.3
19:05 1017 30.03 846 24.98 -6.3 20.7 86 -8.2 17.3
19:10 1017 30.03 846 24.98 -6.1 21 86 -8 17.5
19:15 1017 30.03 846 24.98 -5.9 21.4 86 -7.9 17.7
19:20 1017 30.03 846 24.98 -5.8 21.6 85 -8 17.6
19:25 1017 30.03 846 24.98 -5.8 21.5 85 -7.9 17.8
19:30 1017 30.03 846 24.98 -5.8 21.6 86 -7.8 17.9
19:35 1017 30.03 846 24.98 -5.6 22 84 -7.9 17.8
19:40 1017 30.03 846 24.98 -5.2 22.6 83 -7.7 18.1
19:45 1017 30.03 846 24.98 -4.9 23.2 80 -7.8 18
19:50 1017 30.03 846 24.98 -4.9 23.2 80 -7.8 17.9
19:55 1017 30.03 846 24.98 -4.9 23.2 80 -7.8 18
20:00 1017 30.03 846 24.98 -4.9 23.2 80 -7.8 17.9
20:05 1017 30.03 846 24.98 -5 23.1 81 -7.8 18
20:10 1017 30.03 846 24.98 -5.3 22.5 82 -7.9 17.8
20:15 1017 30.03 846 24.98 -5.3 22.5 82 -8 17.7
20:20 1017 30.03 846 24.98 -5.6 21.9 83 -8 17.5
20:25 1017 30.03 846 24.98 -5.9 21.3 85 -8.1 17.4
20:30 1017 30.03 846 24.98 -6.1 21.1 86 -8.1 17.5
20:35 1017 30.03 846 24.98 -6.1 21.1 86 -8.1 17.4
20:40 1017 30.03 846 24.98 -6.1 21 86 -8 17.5
20:45 1017 30.03 846 24.98 -6.1 21 86 -8 17.6
20:50 1017 30.03 846 24.98 -5.7 21.8 84 -8 17.7
20:55 1017 30.03 846 24.98 -5.6 21.9 82 -8.2 17.3
21:00 1017 30.03 846 24.98 -5.7 21.7 83 -8.2 17.2
21:05 1017 30.03 846 24.98 -5.5 22.1 81 -8.3 17.1
21:10 1017 30.03 846 24.98 -5.1 22.8 80 -8.1 17.5
21:15 1017 30.03 846 24.98 -5 23.1 80 -7.8 17.9
21:20 1017 30.03 846 24.98 -5.2 22.7 80 -8.1 17.5
21:25 1017 30.03 846 24.98 -5.1 22.9 80 -8 17.6
21:30 1017 30.03 846 24.98 -5.1 22.9 79 -8.2 17.2
21:35 1017 30.03 846 24.98 -5.1 22.8 79 -8.2 17.2
21:40 1017 30.03 846 24.98 -4.9 23.1 77 -8.3 17.1
21:45 1017 30.03 846 24.98 -5 23 77 -8.3 17
21:50 1017 30.03 846 24.98 -5 23 78 -8.3 17.1
21:55 1017 30.03 846 24.98 -5.1 22.9 78 -8.3 17.1
22:00 1017 30.03 846 24.98 -5.2 22.7 79 -8.3 17.1
22:05 1016 30 846 24.98 -5.3 22.4 79 -8.3 17
22:10 1016 30 846 24.98 -5.6 21.8 79 -8.7 16.3
22:15 1016 30 846 24.98 -5.9 21.4 80 -8.8 16.2
22:20 1016 30 846 24.98 -5.9 21.3 80 -8.8 16.2
22:25 1016 30 845 24.95 -6.1 21 81 -8.9 16
22:30 1016 30 845 24.95 -6.3 20.7 81 -9 15.9
22:35 1016 30 845 24.95 -6.2 20.8 81 -9 15.8
22:40 1016 30 845 24.95 -5.9 21.4 80 -8.9 16
22:45 1016 30 845 24.95 -5.7 21.8 79 -8.7 16.4
22:50 1016 30 845 24.95 -5.6 22 79 -8.7 16.4
22:55 1016 30 845 24.95 -5.5 22.1 78 -8.7 16.4
23:00 1016 30 846 24.98 -5.6 21.9 80 -8.6 16.6
23:05 1016 30 846 24.98 -5.6 22 81 -8.3 17
23:10 1016 30 846 24.98 -5.9 21.4 85 -8 17.5
23:15 1017 30.03 846 24.98 -6.2 20.8 89 -7.8 18
23:20 1017 30.03 846 24.98 -6.3 20.7 91 -7.5 18.4
23:25 1017 30.03 846 24.98 -6.2 20.9 91 -7.4 18.7
23:30 1017 30.03 846 24.98 -6 21.1 92 -7.1 19.2
23:35 1017 30.03 846 24.98 -5.8 21.6 92 -6.9 19.5
23:40 1017 30.03 846 24.98 -5.8 21.6 92 -6.9 19.6
23:45 1017 30.03 846 24.98 -5.7 21.7 92 -6.8 19.8
23:50 1017 30.03 846 24.98 -5.7 21.8 92 -6.8 19.8
23:55 1017 30.03 846 24.98 -5.7 21.8 92 -6.8 19.8
24:00 1017 30.03 846 24.98 -5.7 21.8 92 -6.8 19.7